sensor_id;sensor_type;location;lat;lon;timestamp;pressure;altitude;pressure_sealevel;temperature;humidity
46023;BME280;31756;47.936;16.224;2023-02-10T00:01:01;100478.78;;;-5.63;100.00
46023;BME280;31756;47.936;16.224;2023-02-10T00:03:27;100482.66;;;-5.78;100.00
46023;BME280;31756;47.936;16.224;2023-02-10T00:05:54;100475.16;;;-5.90;100.00
46023;BME280;31756;47.936;16.224;2023-02-10T00:08:22;100474.34;;;-6.01;100.00
46023;BME280;31756;47.936;16.224;2023-02-10T00:10:48;100479.50;;;-6.09;100.00
46023;BME280;31756;47.936;16.224;2023-02-10T00:13:14;100478.84;;;-6.07;100.00
46023;BME280;31756;47.936;16.224;2023-02-10T00:15:39;100471.06;;;-6.11;100.00
46023;BME280;31756;47.936;16.224;2023-02-10T00:18:05;100472.31;;;-6.16;100.00
46023;BME280;31756;47.936;16.224;2023-02-10T00:20:30;100482.66;;;-6.12;100.00
46023;BME280;31756;47.936;16.224;2023-02-10T00:22:56;100489.13;;;-6.14;100.00
46023;BME280;31756;47.936;16.224;2023-02-10T00:25:22;100493.00;;;-6.07;100.00
46023;BME280;31756;47.936;16.224;2023-02-10T00:27:47;100498.25;;;-6.14;100.00
46023;BME280;31756;47.936;16.224;2023-02-10T00:30:12;100495.75;;;-6.14;100.00
46023;BME280;31756;47.936;16.224;2023-02-10T00:32:38;100488.22;;;-6.04;100.00
46023;BME280;31756;47.936;16.224;2023-02-10T00:35:05;100488.16;;;-6.16;100.00
46023;BME280;31756;47.936;16.224;2023-02-10T00:37:31;100497.44;;;-6.25;100.00
46023;BME280;31756;47.936;16.224;2023-02-10T00:39:56;100494.00;;;-6.37;100.00
46023;BME280;31756;47.936;16.224;2023-02-10T00:42:25;100488.31;;;-6.46;100.00
46023;BME280;31756;47.936;16.224;2023-02-10T00:44:51;100489.34;;;-6.54;100.00
46023;BME280;31756;47.936;16.224;2023-02-10T00:47:16;100488.09;;;-6.59;100.00
46023;BME280;31756;47.936;16.224;2023-02-10T00:49:42;100491.22;;;-6.62;100.00
46023;BME280;31756;47.936;16.224;2023-02-10T00:52:07;100490.72;;;-6.58;100.00
46023;BME280;31756;47.936;16.224;2023-02-10T00:54:33;100495.78;;;-6.46;100.00
46023;BME280;31756;47.936;16.224;2023-02-10T00:56:59;100496.50;;;-6.37;100.00
46023;BME280;31756;47.936;16.224;2023-02-10T00:59:24;100491.22;;;-6.30;100.00
46023;BME280;31756;47.936;16.224;2023-02-10T01:01:49;100487.50;;;-6.13;100.00
46023;BME280;31756;47.936;16.224;2023-02-10T01:04:15;100494.97;;;-6.03;100.00
46023;BME280;31756;47.936;16.224;2023-02-10T01:06:40;100495.00;;;-5.80;100.00
46023;BME280;31756;47.936;16.224;2023-02-10T01:09:06;100488.06;;;-5.84;100.00
46023;BME280;31756;47.936;16.224;2023-02-10T01:11:32;100485.63;;;-5.94;100.00
46023;BME280;31756;47.936;16.224;2023-02-10T01:13:57;100488.59;;;-5.88;100.00
46023;BME280;31756;47.936;16.224;2023-02-10T01:16:23;100488.59;;;-5.88;100.00
46023;BME280;31756;47.936;16.224;2023-02-10T01:18:48;100492.91;;;-5.85;100.00
46023;BME280;31756;47.936;16.224;2023-02-10T01:21:16;100484.28;;;-5.79;100.00
46023;BME280;31756;47.936;16.224;2023-02-10T01:23:42;100477.91;;;-5.64;100.00
46023;BME280;31756;47.936;16.224;2023-02-10T01:26:08;100481.28;;;-5.63;100.00
46023;BME280;31756;47.936;16.224;2023-02-10T01:28:33;100473.75;;;-5.75;100.00
46023;BME280;31756;47.936;16.224;2023-02-10T01:31:07;100477.38;;;-5.60;100.00
46023;BME280;31756;47.936;16.224;2023-02-10T01:33:35;100477.28;;;-5.61;100.00
46023;BME280;31756;47.936;16.224;2023-02-10T01:36:04;100479.22;;;-5.69;100.00
46023;BME280;31756;47.936;16.224;2023-02-10T01:38:30;100476.94;;;-5.66;100.00
46023;BME280;31756;47.936;16.224;2023-02-10T01:40:56;100476.47;;;-5.72;100.00
46023;BME280;31756;47.936;16.224;2023-02-10T01:43:21;100474.03;;;-5.60;100.00
46023;BME280;31756;47.936;16.224;2023-02-10T01:45:50;100467.69;;;-5.67;100.00
46023;BME280;31756;47.936;16.224;2023-02-10T01:48:16;100473.75;;;-5.75;100.00
46023;BME280;31756;47.936;16.224;2023-02-10T01:50:42;100475.16;;;-5.78;100.00
46023;BME280;31756;47.936;16.224;2023-02-10T01:53:11;100474.69;;;-5.84;100.00
46023;BME280;31756;47.936;16.224;2023-02-10T01:55:38;100470.16;;;-5.90;100.00
46023;BME280;31756;47.936;16.224;2023-02-10T01:58:08;100477.88;;;-5.87;100.00
46023;BME280;31756;47.936;16.224;2023-02-10T02:00:35;100473.53;;;-5.78;100.00
46023;BME280;31756;47.936;16.224;2023-02-10T02:03:02;100471.56;;;-5.82;100.00
46023;BME280;31756;47.936;16.224;2023-02-10T02:05:31;100463.06;;;-5.84;100.00
46023;BME280;31756;47.936;16.224;2023-02-10T02:07:58;100465.78;;;-5.81;100.00
46023;BME280;31756;47.936;16.224;2023-02-10T02:10:26;100469.59;;;-5.86;100.00
46023;BME280;31756;47.936;16.224;2023-02-10T02:15:23;100465.16;;;-5.90;100.00
46023;BME280;31756;47.936;16.224;2023-02-10T02:17:59;100472.75;;;-5.77;100.00
46023;BME280;31756;47.936;16.224;2023-02-10T02:23:33;100457.63;;;-5.57;100.00
46023;BME280;31756;47.936;16.224;2023-02-10T02:34:09;100454.06;;;-5.48;100.00
46023;BME280;31756;47.936;16.224;2023-02-10T02:36:43;100447.88;;;-5.54;100.00
46023;BME280;31756;47.936;16.224;2023-02-10T02:39:10;100446.31;;;-5.63;100.00
46023;BME280;31756;47.936;16.224;2023-02-10T02:41:36;100449.66;;;-5.74;100.00
46023;BME280;31756;47.936;16.224;2023-02-10T02:44:06;100447.16;;;-5.74;100.00
46023;BME280;31756;47.936;16.224;2023-02-10T02:47:16;100453.31;;;-5.47;100.00
46023;BME280;31756;47.936;16.224;2023-02-10T02:50:06;100456.44;;;-5.50;100.00
46023;BME280;31756;47.936;16.224;2023-02-10T02:52:18;100449.38;;;-5.56;100.00
46023;BME280;31756;47.936;16.224;2023-02-10T02:55:00;100460.34;;;-5.54;100.00
46023;BME280;31756;47.936;16.224;2023-02-10T02:57:32;100457.09;;;-5.53;100.00
46023;BME280;31756;47.936;16.224;2023-02-10T03:00:05;100455.78;;;-5.59;100.00
46023;BME280;31756;47.936;16.224;2023-02-10T03:02:35;100461.09;;;-5.66;100.00
46023;BME280;31756;47.936;16.224;2023-02-10T03:05:03;100461.94;;;-5.77;100.00
46023;BME280;31756;47.936;16.224;2023-02-10T03:07:28;100464.59;;;-5.86;100.00
46023;BME280;31756;47.936;16.224;2023-02-10T03:09:54;100465.16;;;-5.90;100.00
46023;BME280;31756;47.936;16.224;2023-02-10T03:12:19;100464.03;;;-5.93;100.00
46023;BME280;31756;47.936;16.224;2023-02-10T03:14:45;100467.72;;;-6.00;100.00
46023;BME280;31756;47.936;16.224;2023-02-10T03:17:10;100469.00;;;-6.05;100.00
46023;BME280;31756;47.936;16.224;2023-02-10T03:19:36;100472.38;;;-6.05;100.00
46023;BME280;31756;47.936;16.224;2023-02-10T03:22:01;100473.25;;;-6.04;100.00
46023;BME280;31756;47.936;16.224;2023-02-10T03:24:27;100474.72;;;-6.06;100.00
46023;BME280;31756;47.936;16.224;2023-02-10T03:26:53;100476.72;;;-6.02;100.00
46023;BME280;31756;47.936;16.224;2023-02-10T03:29:18;100477.13;;;-6.08;100.00
46023;BME280;31756;47.936;16.224;2023-02-10T03:31:44;100480.91;;;-6.13;100.00
46023;BME280;31756;47.936;16.224;2023-02-10T03:34:09;100478.63;;;-6.10;100.00
46023;BME280;31756;47.936;16.224;2023-02-10T03:36:34;100476.44;;;-6.17;100.00
46023;BME280;31756;47.936;16.224;2023-02-10T03:39:00;100481.94;;;-6.21;100.00
46023;BME280;31756;47.936;16.224;2023-02-10T03:41:26;100488.34;;;-6.24;100.00
46023;BME280;31756;47.936;16.224;2023-02-10T03:43:51;100492.53;;;-6.23;100.00
46023;BME280;31756;47.936;16.224;2023-02-10T03:46:17;100493.59;;;-6.31;100.00
46023;BME280;31756;47.936;16.224;2023-02-10T03:48:42;100499.22;;;-6.34;100.00
46023;BME280;31756;47.936;16.224;2023-02-10T03:51:08;100504.25;;;-6.44;100.00
46023;BME280;31756;47.936;16.224;2023-02-10T03:53:34;100503.66;;;-6.52;100.00
46023;BME280;31756;47.936;16.224;2023-02-10T03:55:59;100499.84;;;-6.58;100.00
46023;BME280;31756;47.936;16.224;2023-02-10T03:58:25;100510.31;;;-6.62;100.00
46023;BME280;31756;47.936;16.224;2023-02-10T04:00:50;100511.06;;;-6.63;100.00
46023;BME280;31756;47.936;16.224;2023-02-10T04:03:16;100505.13;;;-6.43;100.00
46023;BME280;31756;47.936;16.224;2023-02-10T04:05:42;100512.66;;;-6.32;100.00
46023;BME280;31756;47.936;16.224;2023-02-10T04:08:08;100505.97;;;-6.33;100.00
46023;BME280;31756;47.936;16.224;2023-02-10T04:10:34;100513.84;;;-6.38;100.00
46023;BME280;31756;47.936;16.224;2023-02-10T04:12:59;100517.06;;;-6.39;100.00
46023;BME280;31756;47.936;16.224;2023-02-10T04:15:25;100513.25;;;-6.46;100.00
46023;BME280;31756;47.936;16.224;2023-02-10T04:17:50;100513.97;;;-6.37;100.00
46023;BME280;31756;47.936;16.224;2023-02-10T04:20:21;100512.72;;;-6.42;100.00
46023;BME280;31756;47.936;16.224;2023-02-10T04:22:47;100515.75;;;-6.46;100.00
46023;BME280;31756;47.936;16.224;2023-02-10T04:25:12;100525.38;;;-6.51;100.00
46023;BME280;31756;47.936;16.224;2023-02-10T04:27:38;100517.91;;;-6.61;100.00
46023;BME280;31756;47.936;16.224;2023-02-10T04:30:03;100514.53;;;-6.61;100.00
46023;BME280;31756;47.936;16.224;2023-02-10T04:32:29;100507.69;;;-6.54;100.00
46023;BME280;31756;47.936;16.224;2023-02-10T04:34:54;100507.53;;;-6.55;100.00
46023;BME280;31756;47.936;16.224;2023-02-10T04:37:20;100503.22;;;-6.36;100.00
46023;BME280;31756;47.936;16.224;2023-02-10T04:39:45;100508.25;;;-6.46;100.00
46023;BME280;31756;47.936;16.224;2023-02-10T04:42:11;100503.63;;;-6.41;100.00
46023;BME280;31756;47.936;16.224;2023-02-10T04:44:36;100501.53;;;-6.47;100.00
46023;BME280;31756;47.936;16.224;2023-02-10T04:47:02;100502.16;;;-6.50;100.00
46023;BME280;31756;47.936;16.224;2023-02-10T04:49:28;100510.50;;;-6.49;100.00
46023;BME280;31756;47.936;16.224;2023-02-10T04:51:53;100510.41;;;-6.51;100.00
46023;BME280;31756;47.936;16.224;2023-02-10T04:54:19;100505.78;;;-6.56;100.00
46023;BME280;31756;47.936;16.224;2023-02-10T04:56:45;100516.00;;;-6.53;100.00
46023;BME280;31756;47.936;16.224;2023-02-10T04:59:10;100518.34;;;-6.44;100.00
46023;BME280;31756;47.936;16.224;2023-02-10T05:01:36;100514.88;;;-6.47;100.00
46023;BME280;31756;47.936;16.224;2023-02-10T05:04:02;100519.78;;;-6.58;100.00
46023;BME280;31756;47.936;16.224;2023-02-10T05:06:27;100515.91;;;-6.65;100.00
46023;BME280;31756;47.936;16.224;2023-02-10T05:08:53;100518.69;;;-6.72;100.00
46023;BME280;31756;47.936;16.224;2023-02-10T05:11:18;100523.16;;;-6.68;100.00
46023;BME280;31756;47.936;16.224;2023-02-10T05:13:45;100534.16;;;-6.76;100.00
46023;BME280;31756;47.936;16.224;2023-02-10T05:16:11;100531.81;;;-6.84;100.00
46023;BME280;31756;47.936;16.224;2023-02-10T05:18:37;100536.78;;;-6.84;100.00
46023;BME280;31756;47.936;16.224;2023-02-10T05:21:04;100529.81;;;-6.88;100.00
46023;BME280;31756;47.936;16.224;2023-02-10T05:23:30;100539.06;;;-6.87;100.00
46023;BME280;31756;47.936;16.224;2023-02-10T05:25:55;100543.41;;;-6.85;100.00
46023;BME280;31756;47.936;16.224;2023-02-10T05:28:21;100544.13;;;-6.86;100.00
46023;BME280;31756;47.936;16.224;2023-02-10T05:30:47;100538.19;;;-6.88;100.00
46023;BME280;31756;47.936;16.224;2023-02-10T05:33:13;100533.69;;;-6.92;100.00
46023;BME280;31756;47.936;16.224;2023-02-10T05:35:40;100528.72;;;-6.92;100.00
46023;BME280;31756;47.936;16.224;2023-02-10T05:38:05;100535.81;;;-6.97;100.00
46023;BME280;31756;47.936;16.224;2023-02-10T05:40:31;100533.56;;;-7.04;100.00
46023;BME280;31756;47.936;16.224;2023-02-10T05:42:57;100539.06;;;-7.08;100.00
46023;BME280;31756;47.936;16.224;2023-02-10T05:45:22;100547.91;;;-7.11;100.00
46023;BME280;31756;47.936;16.224;2023-02-10T05:47:50;100549.41;;;-7.13;100.00
46023;BME280;31756;47.936;16.224;2023-02-10T05:50:17;100556.75;;;-7.15;100.00
46023;BME280;31756;47.936;16.224;2023-02-10T05:52:42;100558.88;;;-7.19;100.00
46023;BME280;31756;47.936;16.224;2023-02-10T05:55:08;100560.50;;;-7.20;100.00
46023;BME280;31756;47.936;16.224;2023-02-10T05:57:34;100569.09;;;-7.16;100.00
46023;BME280;31756;47.936;16.224;2023-02-10T05:59:59;100569.47;;;-7.22;100.00
46023;BME280;31756;47.936;16.224;2023-02-10T06:02:24;100572.44;;;-7.16;100.00
46023;BME280;31756;47.936;16.224;2023-02-10T06:04:50;100568.72;;;-7.21;100.00
46023;BME280;31756;47.936;16.224;2023-02-10T06:07:15;100565.84;;;-7.25;100.00
46023;BME280;31756;47.936;16.224;2023-02-10T06:09:42;100561.72;;;-7.25;100.00
46023;BME280;31756;47.936;16.224;2023-02-10T06:12:08;100572.56;;;-7.24;100.00
46023;BME280;31756;47.936;16.224;2023-02-10T06:14:33;100575.94;;;-7.04;100.00
46023;BME280;31756;47.936;16.224;2023-02-10T06:16:59;100580.31;;;-7.01;100.00
46023;BME280;31756;47.936;16.224;2023-02-10T06:19:24;100584.28;;;-7.03;100.00
46023;BME280;31756;47.936;16.224;2023-02-10T06:21:50;100582.66;;;-7.03;100.00
46023;BME280;31756;47.936;16.224;2023-02-10T06:24:15;100586.78;;;-7.03;100.00
46023;BME280;31756;47.936;16.224;2023-02-10T06:26:41;100593.50;;;-7.02;100.00
46023;BME280;31756;47.936;16.224;2023-02-10T06:29:06;100596.25;;;-6.99;100.00
46023;BME280;31756;47.936;16.224;2023-02-10T06:31:32;100601.38;;;-6.98;100.00
46023;BME280;31756;47.936;16.224;2023-02-10T06:33:57;100601.00;;;-6.92;100.00
46023;BME280;31756;47.936;16.224;2023-02-10T06:36:23;100604.72;;;-6.87;100.00
46023;BME280;31756;47.936;16.224;2023-02-10T06:38:48;100606.22;;;-6.79;100.00
46023;BME280;31756;47.936;16.224;2023-02-10T06:41:14;100607.44;;;-6.74;100.00
46023;BME280;31756;47.936;16.224;2023-02-10T06:43:39;100608.09;;;-6.66;100.00
46023;BME280;31756;47.936;16.224;2023-02-10T06:46:05;100611.91;;;-6.60;100.00
46023;BME280;31756;47.936;16.224;2023-02-10T06:48:32;100613.41;;;-6.52;100.00
46023;BME280;31756;47.936;16.224;2023-02-10T06:50:57;100619.25;;;-6.41;100.00
46023;BME280;31756;47.936;16.224;2023-02-10T06:53:23;100603.41;;;-6.41;100.00
46023;BME280;31756;47.936;16.224;2023-02-10T06:55:48;100625.44;;;-6.26;100.00
46023;BME280;31756;47.936;16.224;2023-02-10T06:58:14;100622.06;;;-6.16;100.00
46023;BME280;31756;47.936;16.224;2023-02-10T07:00:39;100627.34;;;-6.02;100.00
46023;BME280;31756;47.936;16.224;2023-02-10T07:03:05;100625.44;;;-5.94;100.00
46023;BME280;31756;47.936;16.224;2023-02-10T07:05:30;100619.88;;;-5.80;100.00
46023;BME280;31756;47.936;16.224;2023-02-10T07:07:56;100625.19;;;-5.65;100.00
46023;BME280;31756;47.936;16.224;2023-02-10T07:10:25;100619.84;;;-5.48;100.00
46023;BME280;31756;47.936;16.224;2023-02-10T07:12:50;100619.88;;;-5.36;100.00
46023;BME280;31756;47.936;16.224;2023-02-10T07:15:16;100622.81;;;-5.30;100.00
46023;BME280;31756;47.936;16.224;2023-02-10T07:17:44;100623.44;;;-5.23;100.00
46023;BME280;31756;47.936;16.224;2023-02-10T07:20:09;100623.94;;;-5.05;100.00
46023;BME280;31756;47.936;16.224;2023-02-10T07:22:35;100631.81;;;-4.89;100.00
46023;BME280;31756;47.936;16.224;2023-02-10T07:25:01;100637.50;;;-4.80;100.00
46023;BME280;31756;47.936;16.224;2023-02-10T07:27:26;100631.09;;;-4.65;100.00
46023;BME280;31756;47.936;16.224;2023-02-10T07:29:51;100623.38;;;-4.44;100.00
46023;BME280;31756;47.936;16.224;2023-02-10T07:32:17;100632.75;;;-4.30;100.00
46023;BME280;31756;47.936;16.224;2023-02-10T07:34:42;100634.06;;;-4.12;100.00
46023;BME280;31756;47.936;16.224;2023-02-10T07:37:08;100636.78;;;-3.97;100.00
46023;BME280;31756;47.936;16.224;2023-02-10T07:39:34;100627.59;;;-3.85;100.00
46023;BME280;31756;47.936;16.224;2023-02-10T07:41:59;100630.53;;;-3.79;100.00
46023;BME280;31756;47.936;16.224;2023-02-10T07:44:36;100624.06;;;-3.52;100.00
46023;BME280;31756;47.936;16.224;2023-02-10T07:47:01;100625.84;;;-3.38;100.00
46023;BME280;31756;47.936;16.224;2023-02-10T07:49:26;100628.63;;;-3.22;100.00
46023;BME280;31756;47.936;16.224;2023-02-10T07:51:55;100633.91;;;-3.06;100.00
46023;BME280;31756;47.936;16.224;2023-02-10T07:54:21;100635.28;;;-2.98;100.00
46023;BME280;31756;47.936;16.224;2023-02-10T07:56:49;100639.75;;;-2.94;100.00
46023;BME280;31756;47.936;16.224;2023-02-10T07:59:15;100642.28;;;-3.05;100.00
46023;BME280;31756;47.936;16.224;2023-02-10T08:01:41;100635.84;;;-2.77;100.00
46023;BME280;31756;47.936;16.224;2023-02-10T08:04:07;100643.19;;;-2.67;100.00
46023;BME280;31756;47.936;16.224;2023-02-10T08:06:32;100652.41;;;-2.41;100.00
46023;BME280;31756;47.936;16.224;2023-02-10T08:08:58;100644.31;;;-2.24;100.00
46023;BME280;31756;47.936;16.224;2023-02-10T08:11:23;100649.34;;;-2.11;100.00
46023;BME280;31756;47.936;16.224;2023-02-10T08:13:48;100650.03;;;-1.87;100.00
46023;BME280;31756;47.936;16.224;2023-02-10T08:16:14;100649.72;;;-1.78;100.00
46023;BME280;31756;47.936;16.224;2023-02-10T08:18:40;100649.63;;;-1.67;100.00
46023;BME280;31756;47.936;16.224;2023-02-10T08:21:05;100659.25;;;-1.47;100.00
46023;BME280;31756;47.936;16.224;2023-02-10T08:23:31;100659.97;;;-1.34;100.00
46023;BME280;31756;47.936;16.224;2023-02-10T08:25:57;100665.75;;;-1.22;100.00
46023;BME280;31756;47.936;16.224;2023-02-10T08:28:22;100659.16;;;-1.20;100.00
46023;BME280;31756;47.936;16.224;2023-02-10T08:30:48;100663.72;;;-1.15;100.00
46023;BME280;31756;47.936;16.224;2023-02-10T08:33:14;100657.06;;;-1.00;100.00
46023;BME280;31756;47.936;16.224;2023-02-10T08:35:40;100669.38;;;-1.04;100.00
46023;BME280;31756;47.936;16.224;2023-02-10T08:38:06;100665.22;;;-1.04;100.00
46023;BME280;31756;47.936;16.224;2023-02-10T08:40:32;100663.59;;;-0.88;100.00
46023;BME280;31756;47.936;16.224;2023-02-10T08:42:57;100669.47;;;-1.03;100.00
46023;BME280;31756;47.936;16.224;2023-02-10T08:45:23;100661.00;;;-0.75;100.00
46023;BME280;31756;47.936;16.224;2023-02-10T08:47:48;100662.06;;;-0.57;100.00
46023;BME280;31756;47.936;16.224;2023-02-10T08:50:17;100655.84;;;-0.34;100.00
46023;BME280;31756;47.936;16.224;2023-02-10T08:52:42;100657.72;;;-0.16;100.00
46023;BME280;31756;47.936;16.224;2023-02-10T08:55:08;100651.34;;;0.06;100.00
46023;BME280;31756;47.936;16.224;2023-02-10T08:57:33;100646.81;;;0.15;100.00
46023;BME280;31756;47.936;16.224;2023-02-10T08:59:59;100658.78;;;0.33;99.58
46023;BME280;31756;47.936;16.224;2023-02-10T09:02:25;100652.75;;;1.27;100.00
46023;BME280;31756;47.936;16.224;2023-02-10T09:04:51;100659.16;;;1.20;100.00
46023;BME280;31756;47.936;16.224;2023-02-10T09:07:16;100653.44;;;2.10;99.57
46023;BME280;31756;47.936;16.224;2023-02-10T09:09:42;100653.00;;;2.18;91.77
46023;BME280;31756;47.936;16.224;2023-02-10T09:12:08;100656.84;;;2.10;90.04
46023;BME280;31756;47.936;16.224;2023-02-10T09:14:35;100651.91;;;2.49;90.96
46023;BME280;31756;47.936;16.224;2023-02-10T09:17:01;100645.72;;;2.61;86.14
46023;BME280;31756;47.936;16.224;2023-02-10T09:19:29;100648.28;;;2.44;85.62
46023;BME280;31756;47.936;16.224;2023-02-10T09:21:55;100650.66;;;2.78;88.53
46023;BME280;31756;47.936;16.224;2023-02-10T09:24:21;100647.94;;;3.11;88.69
46023;BME280;31756;47.936;16.224;2023-02-10T09:26:47;100657.16;;;3.49;83.66
46023;BME280;31756;47.936;16.224;2023-02-10T09:29:12;100652.69;;;3.44;78.74
46023;BME280;31756;47.936;16.224;2023-02-10T09:31:38;100657.19;;;3.11;79.42
46023;BME280;31756;47.936;16.224;2023-02-10T09:34:04;100653.06;;;3.32;74.65
46023;BME280;31756;47.936;16.224;2023-02-10T09:36:30;100658.66;;;3.65;72.07
46023;BME280;31756;47.936;16.224;2023-02-10T09:38:55;100651.78;;;4.04;69.05
46023;BME280;31756;47.936;16.224;2023-02-10T09:49:26;100650.38;;;3.90;59.14
46023;BME280;31756;47.936;16.224;2023-02-10T09:54:42;100655.53;;;4.13;60.99
46023;BME280;31756;47.936;16.224;2023-02-10T09:57:19;100653.72;;;4.32;60.97
46023;BME280;31756;47.936;16.224;2023-02-10T09:59:46;100658.06;;;4.56;61.37
46023;BME280;31756;47.936;16.224;2023-02-10T10:04:39;100654.31;;;4.04;59.58
46023;BME280;31756;47.936;16.224;2023-02-10T10:12:07;100641.09;;;3.90;62.03
46023;BME280;31756;47.936;16.224;2023-02-10T10:14:36;100650.56;;;3.94;62.16
46023;BME280;31756;47.936;16.224;2023-02-10T10:30:23;100620.34;;;4.00;69.37
46023;BME280;31756;47.936;16.224;2023-02-10T10:33:02;100629.72;;;4.24;67.45
46023;BME280;31756;47.936;16.224;2023-02-10T10:35:30;100621.34;;;4.26;68.09
46023;BME280;31756;47.936;16.224;2023-02-10T10:37:57;100616.72;;;4.38;66.10
46023;BME280;31756;47.936;16.224;2023-02-10T10:40:24;100618.75;;;4.47;65.81
46023;BME280;31756;47.936;16.224;2023-02-10T10:42:58;100615.84;;;4.38;67.46
46023;BME280;31756;47.936;16.224;2023-02-10T10:45:30;100617.16;;;4.49;66.65
46023;BME280;31756;47.936;16.224;2023-02-10T10:48:04;100606.56;;;4.60;67.39
46023;BME280;31756;47.936;16.224;2023-02-10T10:50:31;100594.94;;;4.67;66.48
46023;BME280;31756;47.936;16.224;2023-02-10T10:52:57;100587.81;;;4.57;66.22
46023;BME280;31756;47.936;16.224;2023-02-10T10:55:35;100588.72;;;4.59;66.29
46023;BME280;31756;47.936;16.224;2023-02-10T10:58:01;100590.25;;;4.54;67.61
46023;BME280;31756;47.936;16.224;2023-02-10T11:00:28;100597.59;;;4.70;65.53
46023;BME280;31756;47.936;16.224;2023-02-10T11:03:03;100589.31;;;4.76;64.26
46023;BME280;31756;47.936;16.224;2023-02-10T11:05:33;100591.03;;;4.75;63.99
46023;BME280;31756;47.936;16.224;2023-02-10T11:08:01;100581.81;;;4.79;64.87
46023;BME280;31756;47.936;16.224;2023-02-10T11:10:48;100586.13;;;5.05;65.64
46023;BME280;31756;47.936;16.224;2023-02-10T11:13:20;100594.91;;;5.13;64.07
46023;BME280;31756;47.936;16.224;2023-02-10T11:15:46;100577.59;;;5.28;63.36
46023;BME280;31756;47.936;16.224;2023-02-10T11:18:16;100576.09;;;5.35;62.66
46023;BME280;31756;47.936;16.224;2023-02-10T11:20:51;100570.38;;;5.15;61.48
46023;BME280;31756;47.936;16.224;2023-02-10T11:23:17;100569.03;;;5.26;61.79
46023;BME280;31756;47.936;16.224;2023-02-10T11:25:47;100550.97;;;5.44;60.40
46023;BME280;31756;47.936;16.224;2023-02-10T11:28:20;100553.41;;;5.66;59.25
46023;BME280;31756;47.936;16.224;2023-02-10T11:30:46;100549.91;;;5.63;58.56
46023;BME280;31756;47.936;16.224;2023-02-10T11:33:19;100548.06;;;5.59;59.04
46023;BME280;31756;47.936;16.224;2023-02-10T11:35:49;100544.44;;;5.50;58.83
46023;BME280;31756;47.936;16.224;2023-02-10T11:38:17;100540.47;;;5.60;57.88
46023;BME280;31756;47.936;16.224;2023-02-10T11:40:52;100547.88;;;5.52;59.23
46023;BME280;31756;47.936;16.224;2023-02-10T11:43:18;100537.03;;;5.58;58.37
46023;BME280;31756;47.936;16.224;2023-02-10T11:45:52;100532.22;;;5.67;58.00
46023;BME280;31756;47.936;16.224;2023-02-10T11:48:19;100545.34;;;5.79;57.41
46023;BME280;31756;47.936;16.224;2023-02-10T11:50:45;100529.78;;;5.70;56.06
46023;BME280;31756;47.936;16.224;2023-02-10T11:53:24;100517.72;;;5.91;56.65
46023;BME280;31756;47.936;16.224;2023-02-10T11:55:52;100514.66;;;6.02;57.74
46023;BME280;31756;47.936;16.224;2023-02-10T12:01:15;100514.66;;;5.75;57.21
46023;BME280;31756;47.936;16.224;2023-02-10T12:06:16;100516.13;;;5.93;57.42
46023;BME280;31756;47.936;16.224;2023-02-10T12:14:09;100519.69;;;6.00;54.76
46023;BME280;31756;47.936;16.224;2023-02-10T12:19:32;100521.66;;;6.09;56.39
46023;BME280;31756;47.936;16.224;2023-02-10T12:22:13;100530.84;;;6.33;54.23
46023;BME280;31756;47.936;16.224;2023-02-10T12:45:28;100530.59;;;5.96;52.61
46023;BME280;31756;47.936;16.224;2023-02-10T12:53:17;100517.16;;;6.00;51.98
46023;BME280;31756;47.936;16.224;2023-02-10T12:58:13;100514.44;;;5.94;51.49
46023;BME280;31756;47.936;16.224;2023-02-10T13:00:42;100515.19;;;5.91;51.32
46023;BME280;31756;47.936;16.224;2023-02-10T13:05:45;100507.81;;;5.74;52.34
46023;BME280;31756;47.936;16.224;2023-02-10T13:08:24;100515.72;;;5.55;52.67
46023;BME280;31756;47.936;16.224;2023-02-10T13:11:02;100512.63;;;5.65;52.19
46023;BME280;31756;47.936;16.224;2023-02-10T13:13:31;100517.91;;;5.71;52.37
46023;BME280;31756;47.936;16.224;2023-02-10T13:15:59;100519.00;;;5.79;51.83
46023;BME280;31756;47.936;16.224;2023-02-10T13:18:27;100505.97;;;5.95;50.97
46023;BME280;31756;47.936;16.224;2023-02-10T13:23:47;100509.56;;;6.02;49.48
46023;BME280;31756;47.936;16.224;2023-02-10T13:34:04;100522.09;;;5.95;49.89
46023;BME280;31756;47.936;16.224;2023-02-10T13:36:36;100517.72;;;5.91;49.62
46023;BME280;31756;47.936;16.224;2023-02-10T13:39:05;100512.69;;;5.93;49.45
46023;BME280;31756;47.936;16.224;2023-02-10T13:41:39;100512.25;;;5.79;49.28
46023;BME280;31756;47.936;16.224;2023-02-10T13:44:16;100520.88;;;5.84;49.44
46023;BME280;31756;47.936;16.224;2023-02-10T13:46:42;100520.66;;;5.77;49.92
46023;BME280;31756;47.936;16.224;2023-02-10T13:49:11;100517.28;;;5.78;49.50
46023;BME280;31756;47.936;16.224;2023-02-10T13:51:40;100520.66;;;5.77;49.66
46023;BME280;31756;47.936;16.224;2023-02-10T13:54:22;100529.50;;;5.88;49.54
46023;BME280;31756;47.936;16.224;2023-02-10T13:56:52;100525.91;;;5.83;49.53
46023;BME280;31756;47.936;16.224;2023-02-10T14:04:46;100513.25;;;5.84;50.25
46023;BME280;31756;47.936;16.224;2023-02-10T14:07:16;100518.44;;;5.61;50.18
46023;BME280;31756;47.936;16.224;2023-02-10T14:12:31;100522.44;;;5.52;51.14
46023;BME280;31756;47.936;16.224;2023-02-10T14:15:08;100529.34;;;5.57;51.53
46023;BME280;31756;47.936;16.224;2023-02-10T14:17:42;100517.56;;;5.59;51.20
46023;BME280;31756;47.936;16.224;2023-02-10T14:20:17;100533.53;;;5.55;51.59
46023;BME280;31756;47.936;16.224;2023-02-10T14:22:49;100519.72;;;5.46;51.07
46023;BME280;31756;47.936;16.224;2023-02-10T14:25:16;100525.53;;;5.42;50.75